createdAt,value
2023-08-12T00:00:45.699Z,19.71
2023-08-12T00:11:09.508Z,19.64
2023-08-12T00:21:30.897Z,19.58
2023-08-12T00:31:52.081Z,19.52
2023-08-12T00:42:13.265Z,19.48
2023-08-12T00:52:34.842Z,19.42
2023-08-12T01:02:58.027Z,19.36
2023-08-12T01:13:50.654Z,19.30
2023-08-12T01:24:11.928Z,19.24
2023-08-12T01:35:02.860Z,19.18
2023-08-12T01:45:24.638Z,19.15
2023-08-12T01:55:46.237Z,19.10
2023-08-12T02:06:08.236Z,19.04
2023-08-12T02:16:29.820Z,19.00
2023-08-12T02:26:51.651Z,18.96
2023-08-12T02:37:14.440Z,18.90
2023-08-12T02:47:35.920Z,18.86
2023-08-12T02:57:57.462Z,18.81
2023-08-12T03:08:18.571Z,18.75
2023-08-12T03:18:42.726Z,18.69
2023-08-12T03:29:05.793Z,18.65
2023-08-12T03:39:30.559Z,18.60
2023-08-12T03:49:54.394Z,18.55
2023-08-12T04:00:15.729Z,18.51
2023-08-12T04:10:37.242Z,18.45
2023-08-12T04:20:58.609Z,18.40
2023-08-12T04:31:20.139Z,18.34
2023-08-12T04:41:42.526Z,18.29
2023-08-12T04:52:05.597Z,18.26
2023-08-12T05:02:27.594Z,18.21
2023-08-12T05:12:51.504Z,18.16
2023-08-12T05:23:13.633Z,18.13
2023-08-12T05:33:35.538Z,18.11
2023-08-12T05:43:56.830Z,18.10
2023-08-12T05:54:17.802Z,18.14
2023-08-12T06:04:39.235Z,18.19
2023-08-12T06:15:02.618Z,18.29
2023-08-12T06:25:24.467Z,18.42
2023-08-12T06:35:47.179Z,18.58
2023-08-12T06:46:10.381Z,18.75
2023-08-12T06:56:31.632Z,18.97
2023-08-12T07:06:53.021Z,19.20
2023-08-12T07:17:14.332Z,19.48
2023-08-12T07:27:35.412Z,19.74
2023-08-12T07:37:56.883Z,19.99
2023-08-12T07:48:17.984Z,20.26
2023-08-12T07:58:39.490Z,20.53
2023-08-12T08:09:04.287Z,20.79
2023-08-12T08:19:29.877Z,21.03
2023-08-12T08:29:51.643Z,21.30
2023-08-12T08:40:13.536Z,21.56
2023-08-12T08:50:35.275Z,21.70
2023-08-12T09:00:56.894Z,21.83
2023-08-12T09:11:19.396Z,22.02
2023-08-12T09:21:40.887Z,22.22
2023-08-12T09:32:15.312Z,22.44
2023-08-12T09:42:37.277Z,22.61
2023-08-12T09:52:58.828Z,22.79
2023-08-12T10:03:21.701Z,22.98
2023-08-12T10:13:43.602Z,23.20
2023-08-12T10:24:05.568Z,23.40
2023-08-12T10:34:27.090Z,23.62
2023-08-12T10:44:52.995Z,23.78
2023-08-12T10:55:28.786Z,23.99
2023-08-12T11:05:50.258Z,24.16
2023-08-12T11:16:11.937Z,24.35
2023-08-12T11:26:33.176Z,24.51
2023-08-12T11:36:54.428Z,24.66
2023-08-12T11:47:15.958Z,24.84
2023-08-12T11:57:38.401Z,24.96
2023-08-12T12:08:01.046Z,25.08
2023-08-12T12:18:22.493Z,25.17
2023-08-12T12:28:43.760Z,25.25
2023-08-12T12:39:06.009Z,25.36
2023-08-12T12:49:27.538Z,25.39
2023-08-12T12:59:49.757Z,25.45
2023-08-12T13:10:11.245Z,25.59
2023-08-12T13:20:33.161Z,25.63
2023-08-12T13:30:55.426Z,25.58
2023-08-12T13:41:17.552Z,25.53
2023-08-12T13:51:38.708Z,25.85
2023-08-12T14:01:59.816Z,26.15
2023-08-12T14:12:20.896Z,26.19
2023-08-12T14:22:44.749Z,26.19
2023-08-12T14:33:07.370Z,26.02
2023-08-12T14:43:28.731Z,26.00
2023-08-12T14:53:50.302Z,25.93
2023-08-12T15:04:11.764Z,25.91
2023-08-12T15:14:33.649Z,26.03
2023-08-12T15:24:54.979Z,26.18
2023-08-12T15:35:16.276Z,26.03
2023-08-12T15:45:40.943Z,25.72
2023-08-12T15:56:02.218Z,25.58
2023-08-12T16:06:24.832Z,25.51
2023-08-12T16:16:46.286Z,25.46
2023-08-12T16:27:07.961Z,25.39
2023-08-12T16:37:29.068Z,25.30
2023-08-12T16:47:50.316Z,25.22
2023-08-12T16:58:11.697Z,25.17
2023-08-12T17:08:33.124Z,25.10
2023-08-12T17:18:54.775Z,25.01
2023-08-12T17:29:16.237Z,24.90
2023-08-12T17:39:37.506Z,24.79
2023-08-12T17:49:58.850Z,24.69
2023-08-12T18:00:21.641Z,24.62
2023-08-12T18:10:42.864Z,24.54
2023-08-12T18:21:04.276Z,24.47
2023-08-12T18:31:25.579Z,24.39
2023-08-12T18:41:47.347Z,24.32
2023-08-12T18:52:08.439Z,24.22
2023-08-12T19:02:29.883Z,24.13
2023-08-12T19:12:51.614Z,24.05
2023-08-12T19:23:13.367Z,23.95
2023-08-12T19:33:34.469Z,23.86
2023-08-12T19:43:59.167Z,23.77
2023-08-12T19:54:20.311Z,23.68
2023-08-12T20:04:41.627Z,23.59
2023-08-12T20:15:04.052Z,23.50
2023-08-12T20:25:25.457Z,23.41
2023-08-12T20:35:46.862Z,23.32
2023-08-12T20:46:08.640Z,23.22
2023-08-12T20:56:29.785Z,23.14
2023-08-12T21:06:57.413Z,23.05
2023-08-12T21:17:19.153Z,22.97
2023-08-12T21:27:40.484Z,22.89
2023-08-12T21:38:01.668Z,22.83
2023-08-12T21:48:23.132Z,22.76
2023-08-12T21:58:44.980Z,22.69
2023-08-12T22:09:06.696Z,22.64
2023-08-12T22:19:29.031Z,22.58
2023-08-12T22:29:50.201Z,22.53
2023-08-12T22:40:11.800Z,22.48
2023-08-12T22:50:33.011Z,22.43
2023-08-12T23:00:54.634Z,22.38
2023-08-12T23:11:15.726Z,22.32
2023-08-12T23:21:37.250Z,22.26
2023-08-12T23:31:59.483Z,22.22
2023-08-12T23:42:21.028Z,22.19
2023-08-12T23:52:42.077Z,22.18
